Placitas, NM (87043)

6:19 PM MDT on August 28, 2016 (GMT -0600)
Overlook | | Change Station

Elev 5945 ft 35.31 °N, 106.45 °W | Updated 2 minutes ago

Scattered Clouds
Scattered Clouds
72.1 °F
Feels Like 77 °F
N
4.0
Wind Variable Wind from North

Today
High -- | Low -- °F
--% Chance of Precip.
Yesterday
High -- | Low -- °F
Precip. -- in
Pressure 30.01 in
Visibility 10.0 miles
Clouds Few 10000 ft
Scattered Clouds 15000 ft
Scattered Clouds 24000 ft
Heat Index 77 °F
Dew Point 43 °F
Humidity 35%
Rainfall 0.00 in
Snow Depth Not available.
6:35 AM 7:37 PM
Waning Crescent, 12% visible
METAR KABQ 282352Z 33013KT 10SM FEW100 SCT150 SCT240 24/07 A3021 RMK AO2 SLP161 T02390067 10272 20233 52001 $
Pressure 30.01 in
Visibility 10.0 miles
Clouds Few 10000 ft
Scattered Clouds 15000 ft
Scattered Clouds 24000 ft
Heat Index 77 °F
Dew Point 43 °F
Humidity 35%
Rainfall 0.00 in
Snow Depth Not available.
6:35 AM 7:37 PM
Waning Crescent, 12% visible
METAR KABQ 282352Z 33013KT 10SM FEW100 SCT150 SCT240 24/07 A3021 RMK AO2 SLP161 T02390067 10272 20233 52001 $

10-Day Weather Forecast

Almanac

Astronomy

Aug. 28, 2016 Rise Set
Actual Time
Civil Twilight
Nautical Twilight
Astronomical Twilight
Moon
Length of Visible Light
Length of Day
Tomorrow will be .
, % of the Moon is Illuminated

Today's Extremes

State Highs State Lows

Community

WunderPhotos

Upload Photos

1,935,728 photos uploaded!

WunderBlog® & News

Nearby

Air Quality

  Air Quality AQ Index Pollutant
Not available.

Snow Depth

Station Depth Elevation

Earthquake Activity

City Distance Mag. Time & Date
Minimum magnitude displayed is 2.5.

Coastal Water Temperatures

Place Temperature

Stations

Nearby Weather Stations

Station Location Temp. Windchill Dew Point Humidity Wind Precip. Elev Updated Type
                   

Watches & Warnings

There are currently no watches in effect.